Time;durP1;ratioP1;P1;durP2;ratioP2;P2;SDS_P1;SDS_P2;PMS_P1;PMS_P2;Temp;Humidity;BMP_temperature;BMP_pressure;BME280_temperature;BME280_humidity;BME280_pressure;Samples;Min_cycle;Max_cycle;Signal;HPM_P1;HPM_P2
2023/01/06 00:01:25;;;;;;;;;3.25;3.25;;;;;12.04;75.07;101327.34;5018428;28;45423;-68
2023/01/06 00:03:53;;;;;;;;;9.75;9.75;;;;;12.02;75.03;101327.41;5013883;28;47254;-65
2023/01/06 00:06:26;;;;;;;;;3.00;3.00;;;;;12.01;75.17;101323.06;5014469;28;45456;-67
2023/01/06 00:08:51;;;;;;;;;3.00;3.00;;;;;11.99;75.13;101322.22;5017379;28;45400;-68
2023/01/06 00:11:18;;;;;;;;;2.00;2.00;;;;;11.91;75.14;101309.28;5017522;28;45362;-67
2023/01/06 00:13:43;;;;;;;;;1.00;1.00;;;;;11.96;75.05;101317.06;5020329;28;45984;-67
2023/01/06 00:16:14;;;;;;;;;2.00;2.00;;;;;11.93;74.80;101325.91;5003855;28;45290;-65
2023/01/06 00:18:40;;;;;;;;;1.25;1.25;;;;;11.92;75.18;101325.97;5021118;28;45366;-70
2023/01/06 00:21:06;;;;;;;;;1.75;1.75;;;;;11.91;75.33;101325.09;5021484;28;44831;-67
2023/01/06 00:23:33;;;;;;;;;2.25;2.25;;;;;11.91;75.39;101325.09;5019095;28;45394;-66
2023/01/06 00:25:58;;;;;;;;;3.00;3.00;;;;;11.87;75.24;101330.53;5019309;28;45376;-68
2023/01/06 00:28:24;;;;;;;;;3.00;3.00;;;;;11.87;75.03;101336.66;5016570;28;45442;-67
2023/01/06 00:30:50;;;;;;;;;3.00;3.00;;;;;11.87;75.27;101335.81;5016781;28;45671;-69
2023/01/06 00:33:15;;;;;;;;;3.00;3.00;;;;;11.86;75.54;101334.09;5015612;28;45614;-67
2023/01/06 00:35:41;;;;;;;;;2.00;2.00;;;;;11.88;75.38;101333.13;5018336;28;45334;-67
2023/01/06 00:38:06;;;;;;;;;3.75;3.75;;;;;11.80;75.34;101324.59;5019625;28;45327;-67
2023/01/06 00:40:31;;;;;;;;;2.75;2.75;;;;;11.88;76.02;101337.53;5018373;28;45307;-68
2023/01/06 00:42:57;;;;;;;;;14.75;14.75;;;;;11.88;75.60;101337.53;5016700;28;46169;-66
2023/01/06 00:45:22;;;;;;;;;2.75;2.75;;;;;11.77;75.61;101328.22;5016824;28;45459;-67
2023/01/06 00:47:47;;;;;;;;;2.00;2.00;;;;;11.86;75.25;101344.63;5016804;28;45238;-67
2023/01/06 00:50:13;;;;;;;;;1.00;1.00;;;;;11.88;75.23;101346.28;4998726;28;45514;-64
2023/01/06 00:52:38;;;;;;;;;2.00;2.00;;;;;11.87;75.44;101330.53;5016233;28;45339;-64
2023/01/06 00:55:04;;;;;;;;;1.00;1.00;;;;;11.86;75.68;101334.09;5016497;28;45444;-66
2023/01/06 00:57:30;;;;;;;;;1.00;1.00;;;;;11.86;75.24;101342.00;5016689;28;45406;-68
2023/01/06 00:59:55;;;;;;;;;1.50;1.50;;;;;11.87;75.25;101346.38;4998855;28;45357;-66
2023/01/06 01:02:20;;;;;;;;;1.00;1.00;;;;;11.86;75.61;101342.84;5016741;28;46027;-69
2023/01/06 01:04:46;;;;;;;;;1.00;1.00;;;;;11.84;75.18;101336.78;5017589;28;45343;-68
2023/01/06 01:07:11;;;;;;;;;2.25;1.75;;;;;11.83;75.66;101343.81;5016481;28;45360;-69
2023/01/06 01:09:36;;;;;;;;;1.25;1.25;;;;;11.83;75.40;101350.84;5016735;28;45277;-65
2023/01/06 01:12:14;;;;;;;;;1.00;1.00;;;;;11.81;75.67;101348.28;5016400;28;45532;-67
2023/01/06 01:14:51;;;;;;;;;2.00;2.00;;;;;11.79;76.03;101350.13;4998197;28;45336;-68
2023/01/06 01:17:20;;;;;;;;;1.00;1.00;;;;;11.79;76.25;101342.22;5016265;28;45411;-67
2023/01/06 01:19:46;;;;;;;;;2.25;2.25;;;;;11.81;75.84;101345.66;5016226;28;45438;-66
2023/01/06 01:22:12;;;;;;;;;1.00;1.00;;;;;11.73;76.33;101329.22;5016091;28;46653;-68
2023/01/06 01:24:38;;;;;;;;;1.00;1.00;;;;;11.76;76.50;101330.91;4998095;28;45443;-68
2023/01/06 01:27:03;;;;;;;;;1.50;1.50;;;;;11.73;76.31;101336.25;5016851;28;45233;-70
2023/01/06 01:29:29;;;;;;;;;1.00;1.00;;;;;11.73;76.82;101334.50;5018059;28;45486;-68
2023/01/06 01:31:54;;;;;;;;;1.00;1.00;;;;;11.69;76.95;101330.25;5016073;28;45321;-67
2023/01/06 01:34:20;;;;;;;;;1.25;1.25;;;;;11.64;76.80;101325.13;5016259;28;45377;-69
2023/01/06 01:36:47;;;;;;;;;1.00;1.00;;;;;11.65;77.25;101325.97;5016058;28;45239;-65
2023/01/06 01:39:14;;;;;;;;;2.00;2.00;;;;;11.66;76.96;101320.66;5016365;28;45315;-67
2023/01/06 01:41:40;;;;;;;;;1.00;1.00;;;;;11.65;77.28;101318.06;5015965;28;46346;-65
2023/01/06 01:44:43;;;;;;;;;1.00;1.00;;;;;11.65;77.28;101318.94;5016267;28;45351;-67
2023/01/06 01:47:12;;;;;;;;;0.25;0.25;;;;;11.62;77.07;101319.03;5015995;28;45297;-64
2023/01/06 01:49:41;;;;;;;;;0.75;0.75;;;;;11.62;77.66;101320.78;5017020;28;45429;-69
2023/01/06 01:52:09;;;;;;;;;0.50;0.50;;;;;11.58;77.65;101309.50;5016488;28;45262;-67
2023/01/06 01:54:37;;;;;;;;;0.50;0.50;;;;;11.58;77.99;101306.88;4998462;28;45882;-68
2023/01/06 01:57:10;;;;;;;;;0.00;0.00;;;;;11.55;78.13;101304.34;5016047;28;45293;-67
2023/01/06 01:59:39;;;;;;;;;1.00;1.00;;;;;11.52;78.51;101315.81;4998889;28;45337;-66
2023/01/06 02:02:04;;;;;;;;;0.75;0.75;;;;;11.48;78.99;101311.56;5014109;28;45393;-68
2023/01/06 02:04:33;;;;;;;;;1.00;1.00;;;;;11.49;78.61;101309.81;5015857;28;45317;-66
2023/01/06 02:07:00;;;;;;;;;0.00;0.00;;;;;11.48;78.38;101314.19;5015689;28;45400;-64
2023/01/06 02:09:40;;;;;;;;;0.00;0.00;;;;;11.47;78.45;101306.38;5015614;28;45318;-66
2023/01/06 02:12:06;;;;;;;;;6.00;6.00;;;;;11.45;78.54;101306.41;5015795;28;46705;-67
2023/01/06 02:14:31;;;;;;;;;2.00;2.00;;;;;11.39;78.60;101296.94;5015437;28;45357;-66
2023/01/06 02:17:10;;;;;;;;;3.50;3.25;;;;;11.41;78.32;101296.88;5014475;28;51699;-65
2023/01/06 02:19:57;;;;;;;;;1.00;1.00;;;;;11.46;78.35;101305.47;5017109;28;45291;-69
2023/01/06 02:22:47;;;;;;;;;1.00;1.00;;;;;11.46;78.71;101305.47;5016618;28;45320;-66
2023/01/06 02:25:30;;;;;;;;;0.00;0.00;;;;;11.31;78.69;101287.53;5015277;28;45301;-66
2023/01/06 02:28:29;;;;;;;;;1.00;1.00;;;;;11.49;78.65;101304.53;5015494;28;45845;-67
2023/01/06 02:31:13;;;;;;;;;0.00;0.00;;;;;11.51;78.52;101316.72;5015686;28;45646;-67
2023/01/06 02:33:52;;;;;;;;;0.00;0.00;;;;;11.51;78.20;101316.72;5015376;28;46348;-65
2023/01/06 02:36:26;;;;;;;;;0.50;0.50;;;;;11.51;78.25;101313.25;5017393;28;45282;-65
2023/01/06 02:39:24;;;;;;;;;0.00;0.00;;;;;11.48;78.26;101301.03;5015531;28;45305;-66
2023/01/06 02:42:17;;;;;;;;;0.00;0.00;;;;;11.51;78.28;101297.44;4997532;28;45357;-66
2023/01/06 02:44:57;;;;;;;;;1.00;1.00;;;;;11.48;78.78;101303.66;5015048;28;45636;-66
2023/01/06 02:47:43;;;;;;;;;1.00;1.00;;;;;11.47;78.39;101291.41;5015045;28;45407;-68
2023/01/06 02:50:20;;;;;;;;;0.00;0.00;;;;;11.47;79.06;101285.28;5015324;28;45435;-67
2023/01/06 02:53:00;;;;;;;;;1.00;1.00;;;;;11.40;78.79;101280.22;5015368;28;45409;-68
2023/01/06 02:55:28;;;;;;;;;0.00;0.00;;;;;11.45;78.90;101287.09;5014799;28;45241;-68
2023/01/06 02:58:14;;;;;;;;;0.50;0.50;;;;;11.42;79.01;101274.88;5015019;28;45475;-65
2023/01/06 03:00:44;;;;;;;;;1.00;1.00;;;;;11.42;79.22;101280.16;5015971;28;45390;-63
2023/01/06 03:03:14;;;;;;;;;0.25;0.25;;;;;11.41;78.96;101267.88;5015595;28;45253;-66
2023/01/06 03:05:44;;;;;;;;;1.00;1.00;;;;;11.38;79.33;101262.72;5015230;28;46334;-67
2023/01/06 03:08:19;;;;;;;;;1.00;1.00;;;;;11.38;79.00;101268.88;5015192;28;45178;-67
2023/01/06 03:10:47;;;;;;;;;0.00;0.00;;;;;11.37;79.36;101258.38;5014995;28;45259;-69
2023/01/06 03:13:33;;;;;;;;;1.00;1.00;;;;;11.40;79.41;101263.53;5015476;28;45187;-67
2023/01/06 03:15:59;;;;;;;;;1.50;1.50;;;;;11.37;79.03;101251.34;5014706;28;45582;-67
2023/01/06 03:18:25;;;;;;;;;1.00;1.00;;;;;11.42;79.56;101261.72;4996628;28;45445;-67
2023/01/06 03:20:53;;;;;;;;;1.00;1.00;;;;;11.42;79.22;101261.72;5014756;28;45296;-70
2023/01/06 03:23:20;;;;;;;;;1.00;1.00;;;;;11.39;78.99;101253.91;5016802;28;45507;-67
2023/01/06 03:25:45;;;;;;;;;0.00;0.00;;;;;11.39;78.79;101267.09;5014406;28;45337;-70
2023/01/06 03:28:10;;;;;;;;;1.00;1.00;;;;;11.38;78.81;101266.25;5016667;28;45226;-67
2023/01/06 03:30:55;;;;;;;;;0.00;0.00;;;;;11.38;78.96;101265.34;5000503;28;45301;-69
2023/01/06 03:33:27;;;;;;;;;1.00;1.00;;;;;11.36;78.82;101269.81;5018498;28;45210;-68
2023/01/06 03:36:17;;;;;;;;;0.00;0.00;;;;;11.34;79.20;101266.38;5018028;28;46417;-67
2023/01/06 03:38:45;;;;;;;;;2.00;2.00;;;;;11.34;79.34;101259.34;5018173;28;45305;-68
2023/01/06 03:43:10;;;;;;;;;2.25;2.25;;;;;11.34;79.25;101251.44;5018159;28;45368;-68
2023/01/06 03:44:37;;;;;;;;;0.50;0.50;;;;;11.36;79.03;101251.38;5018100;28;45434;-67
2023/01/06 03:47:12;;;;;;;;;0.00;0.00;;;;;11.37;79.10;101253.09;5017534;28;46421;-66
2023/01/06 03:49:53;;;;;;;;;1.00;1.00;;;;;11.37;79.33;101253.97;5017621;28;45488;-66
2023/01/06 03:52:29;;;;;;;;;1.00;1.00;;;;;11.40;79.11;101255.63;5017647;28;45382;-68
2023/01/06 03:55:05;;;;;;;;;0.25;0.25;;;;;11.39;79.19;101251.28;5019738;28;45439;-66
2023/01/06 03:57:35;;;;;;;;;1.00;1.00;;;;;11.40;79.08;101255.63;5000082;28;45470;-68
2023/01/06 04:00:19;;;;;;;;;2.00;2.00;;;;;11.37;79.48;101243.44;5018296;28;45339;-69
2023/01/06 04:02:45;;;;;;;;;0.00;0.00;;;;;11.42;79.46;101239.78;5022449;28;45425;-71
2023/01/06 04:05:17;;;;;;;;;2.00;2.00;;;;;11.41;79.28;101244.19;5037532;28;45400;-69
2023/01/06 04:07:43;;;;;;;;;1.00;1.00;;;;;11.36;79.30;101232.94;5039288;28;46226;-66
2023/01/06 04:10:10;;;;;;;;;1.00;1.00;;;;;11.30;79.81;101231.38;5038495;28;45277;-66
2023/01/06 04:12:38;;;;;;;;;1.00;1.00;;;;;11.30;79.79;101227.88;5038003;28;45444;-66
2023/01/06 04:15:11;;;;;;;;;0.25;0.25;;;;;11.36;79.67;101238.22;5037801;28;45364;-66
2023/01/06 04:17:38;;;;;;;;;0.25;0.25;;;;;11.36;79.61;101235.56;5037275;28;48194;-68
2023/01/06 04:20:05;;;;;;;;;1.00;1.00;;;;;11.37;79.99;101238.19;5037495;28;45488;-66
2023/01/06 04:22:31;;;;;;;;;1.00;1.00;;;;;11.30;79.36;101228.75;5019412;28;45320;-69
2023/01/06 04:24:56;;;;;;;;;0.00;0.00;;;;;11.36;79.50;101243.47;5037386;28;45466;-68
2023/01/06 04:27:22;;;;;;;;;0.75;0.75;;;;;11.33;79.88;101236.56;5037200;28;45351;-68
2023/01/06 04:29:47;;;;;;;;;1.00;1.00;;;;;11.33;79.64;101241.81;5037335;28;45377;-63
2023/01/06 04:32:12;;;;;;;;;1.00;1.00;;;;;11.33;79.77;101244.47;5038226;28;45737;-67
2023/01/06 04:34:38;;;;;;;;;0.00;0.00;;;;;11.35;79.90;101247.03;5037923;28;45325;-67
2023/01/06 04:37:03;;;;;;;;;0.50;0.50;;;;;11.31;80.15;101234.88;5037047;28;45472;-69
2023/01/06 04:39:28;;;;;;;;;1.00;1.00;;;;;11.36;79.70;101233.81;5036550;28;45312;-69
2023/01/06 04:41:54;;;;;;;;;0.75;0.75;;;;;11.36;79.83;101238.22;5037155;28;45388;-68
2023/01/06 04:44:19;;;;;;;;;0.25;0.25;;;;;11.37;80.12;101229.41;5037357;28;45505;-68
2023/01/06 04:46:45;;;;;;;;;0.00;0.00;;;;;11.37;79.81;101226.75;5037300;28;47185;-65
2023/01/06 04:49:10;;;;;;;;;0.50;0.50;;;;;11.37;80.02;101218.84;5036899;28;45390;-66
2023/01/06 04:51:36;;;;;;;;;0.00;0.00;;;;;11.38;80.37;101220.59;5037054;28;45235;-66
2023/01/06 04:54:01;;;;;;;;;0.00;0.00;;;;;11.35;80.23;101211.03;5038520;28;45186;-67
2023/01/06 04:56:26;;;;;;;;;0.25;0.25;;;;;11.31;80.34;101206.78;5038900;28;46252;-66
2023/01/06 04:58:56;;;;;;;;;1.00;1.00;;;;;11.34;79.93;101209.31;5036585;28;45379;-64
2023/01/06 05:01:22;;;;;;;;;0.00;0.00;;;;;11.34;80.26;101209.31;5018728;28;45363;-66
2023/01/06 05:03:48;;;;;;;;;0.00;0.00;;;;;11.36;80.07;101215.38;5038575;28;45586;-65
2023/01/06 05:06:14;;;;;;;;;0.25;0.25;;;;;11.38;79.89;101205.66;5040230;28;46110;-65
2023/01/06 05:08:42;;;;;;;;;1.00;1.00;;;;;11.40;80.38;101205.59;5037399;28;45352;-66
2023/01/06 05:11:13;;;;;;;;;0.25;0.25;;;;;11.39;80.31;101204.75;5036968;28;45259;-68
2023/01/06 05:13:39;;;;;;;;;0.50;0.50;;;;;11.38;80.09;101210.91;5037025;28;45258;-68
2023/01/06 05:16:06;;;;;;;;;0.00;0.00;;;;;11.40;79.83;101205.59;5036259;28;45322;-66
2023/01/06 05:18:31;;;;;;;;;0.50;0.50;;;;;11.42;80.17;101203.75;5036436;28;45321;-66
2023/01/06 05:20:57;;;;;;;;;1.00;1.00;;;;;11.43;80.29;101200.22;5036200;28;45340;-67
2023/01/06 05:23:22;;;;;;;;;0.25;0.25;;;;;11.44;80.52;101211.63;5036585;28;45485;-64
2023/01/06 05:25:50;;;;;;;;;2.00;2.00;;;;;11.43;80.21;101213.38;5036262;28;46831;-64
2023/01/06 05:28:16;;;;;;;;;2.50;2.50;;;;;11.47;80.61;101220.28;5036390;28;45344;-66
2023/01/06 05:30:41;;;;;;;;;0.00;0.00;;;;;11.41;80.31;101217.84;5036244;28;45321;-68
2023/01/06 05:33:07;;;;;;;;;0.00;0.00;;;;;11.47;80.36;101214.16;5036677;28;45526;-66
2023/01/06 05:35:32;;;;;;;;;1.00;1.00;;;;;11.48;80.30;101219.34;5036543;28;46182;-68
2023/01/06 05:37:58;;;;;;;;;2.00;2.00;;;;;11.49;80.74;101226.34;5035962;28;45409;-69
2023/01/06 05:40:23;;;;;;;;;1.00;1.00;;;;;11.51;81.13;101237.69;5035906;28;52339;-67
2023/01/06 05:42:53;;;;;;;;;0.75;0.75;;;;;11.49;80.52;101231.63;5037750;28;45502;-69
2023/01/06 05:45:18;;;;;;;;;2.25;2.25;;;;;11.48;80.17;101234.31;5018570;28;47022;-69
2023/01/06 05:47:43;;;;;;;;;1.00;1.00;;;;;11.47;80.94;101229.97;5035512;28;45415;-67
2023/01/06 05:50:09;;;;;;;;;1.50;1.50;;;;;11.46;80.48;101231.72;5036221;28;45398;-69
2023/01/06 05:52:34;;;;;;;;;1.00;1.00;;;;;11.48;80.74;101243.06;5035058;28;45541;-68
2023/01/06 05:54:59;;;;;;;;;2.00;2.00;;;;;11.49;80.76;101236.88;5035427;28;46471;-64
2023/01/06 05:57:25;;;;;;;;;1.00;1.00;;;;;11.46;80.74;101234.34;5035624;28;45332;-67
2023/01/06 05:59:50;;;;;;;;;1.00;1.00;;;;;11.43;80.62;101226.56;5035582;28;56087;-67
2023/01/06 06:02:16;;;;;;;;;2.00;2.00;;;;;11.48;80.84;101235.16;5036835;28;45585;-66
2023/01/06 06:04:42;;;;;;;;;1.00;1.00;;;;;11.46;80.62;101226.44;5036053;28;45579;-67
2023/01/06 06:07:07;;;;;;;;;1.00;1.00;;;;;11.46;80.74;101231.72;5035126;28;45247;-68
2023/01/06 06:09:32;;;;;;;;;0.50;0.50;;;;;11.47;80.57;101237.88;5035377;28;45285;-67
2023/01/06 06:11:58;;;;;;;;;1.00;1.00;;;;;11.46;81.00;101233.50;5035602;28;45595;-67
2023/01/06 06:14:25;;;;;;;;;1.25;1.25;;;;;11.48;80.66;101232.53;5017057;28;46720;-65
2023/01/06 06:16:50;;;;;;;;;1.00;1.00;;;;;11.49;80.46;101233.41;5035429;28;45237;-68
2023/01/06 06:19:15;;;;;;;;;1.00;1.00;;;;;11.48;81.17;101237.81;5035181;28;45441;-67
2023/01/06 06:21:41;;;;;;;;;1.75;1.75;;;;;11.52;80.48;101241.22;5035553;28;45522;-68
2023/01/06 06:24:06;;;;;;;;;1.00;1.00;;;;;11.51;80.84;101235.06;5033622;28;47870;-67
2023/01/06 06:26:32;;;;;;;;;2.25;2.25;;;;;11.54;80.69;101234.97;5035349;28;45309;-67
2023/01/06 06:28:57;;;;;;;;;1.00;1.00;;;;;11.57;80.78;101235.75;5036789;28;45455;-66
2023/01/06 06:31:24;;;;;;;;;2.00;2.00;;;;;11.56;81.07;101237.56;5035896;28;45734;-66
2023/01/06 06:33:52;;;;;;;;;2.25;2.25;;;;;11.63;80.73;101233.78;5035247;28;46138;-67
2023/01/06 06:36:18;;;;;;;;;5.00;5.00;;;;;11.66;80.86;101243.34;5035513;28;45357;-65
2023/01/06 06:38:46;;;;;;;;;2.00;2.00;;;;;11.66;80.59;101238.97;5034905;28;45421;-64
2023/01/06 06:41:11;;;;;;;;;1.00;1.00;;;;;11.67;81.03;101235.41;5035136;28;45226;-69
2023/01/06 06:43:37;;;;;;;;;1.50;1.50;;;;;11.48;80.52;101208.81;5012968;28;45648;-68
2023/01/06 06:46:03;;;;;;;;;1.00;1.00;;;;;11.65;80.43;101236.38;5017051;28;45419;-67
2023/01/06 06:48:29;;;;;;;;;2.00;2.00;;;;;11.69;80.25;101238.84;5024514;28;45483;-67
2023/01/06 06:51:05;;;;;;;;;16.50;16.50;;;;;11.71;80.46;101244.09;5035337;28;45397;-67
2023/01/06 06:53:32;;;;;;;;;3.00;3.00;;;;;11.68;80.42;101245.03;5034804;28;45645;-74
2023/01/06 06:55:57;;;;;;;;;3.50;3.50;;;;;11.73;80.34;101251.94;5035483;28;45387;-74
2023/01/06 06:58:24;;;;;;;;;1.75;1.75;;;;;11.75;80.47;101253.63;5041793;28;45394;-73
2023/01/06 07:00:49;;;;;;;;;1.75;1.75;;;;;11.69;80.12;101248.56;5038623;28;45490;-75
2023/01/06 07:03:15;;;;;;;;;1.25;1.25;;;;;11.71;80.29;101259.91;5019016;28;46905;-75
2023/01/06 07:05:42;;;;;;;;;1.50;1.50;;;;;11.71;79.83;101261.66;5012559;28;45430;-75
2023/01/06 07:08:08;;;;;;;;;3.00;3.00;;;;;11.73;80.08;101254.56;5039290;28;45220;-72
2023/01/06 07:10:33;;;;;;;;;1.50;1.50;;;;;11.69;80.26;101248.56;5041061;28;45586;-76
2023/01/06 07:12:58;;;;;;;;;2.50;2.50;;;;;11.75;79.96;101258.00;5021931;28;45682;-69
2023/01/06 07:15:24;;;;;;;;;1.00;1.00;;;;;11.74;79.77;101258.91;5040208;28;54162;-74
2023/01/06 07:17:49;;;;;;;;;3.25;3.25;;;;;11.76;80.02;101260.59;5039783;28;45501;-77
2023/01/06 07:20:14;;;;;;;;;5.25;5.25;;;;;11.79;79.95;101270.16;5038764;28;45753;-74
2023/01/06 07:22:40;;;;;;;;;2.00;2.00;;;;;11.79;80.11;101278.06;5040374;28;45911;-75
2023/01/06 07:25:07;;;;;;;;;4.75;4.75;;;;;11.74;79.67;101264.19;5038538;28;45331;-74
2023/01/06 07:27:33;;;;;;;;;2.00;2.00;;;;;11.74;79.51;101262.44;5039119;28;45349;-71
2023/01/06 07:29:58;;;;;;;;;1.75;1.75;;;;;11.76;79.84;101265.00;5038855;28;45563;-72
2023/01/06 07:32:23;;;;;;;;;3.50;3.50;;;;;11.77;80.57;101259.69;5039396;28;45317;-74
2023/01/06 07:34:49;;;;;;;;;2.75;2.75;;;;;11.80;80.33;101263.97;5042883;28;45262;-73
2023/01/06 07:37:14;;;;;;;;;3.25;3.25;;;;;11.81;80.07;101261.31;5038318;28;45215;-76
2023/01/06 07:39:39;;;;;;;;;3.00;3.00;;;;;11.83;80.03;101264.75;5009129;28;45536;-74
2023/01/06 07:42:09;;;;;;;;;2.25;2.25;;;;;11.85;79.81;101262.03;5038958;28;45379;-79
2023/01/06 07:44:35;;;;;;;;;2.00;2.00;;;;;11.82;79.99;101263.03;5040236;28;45331;-81
2023/01/06 07:47:01;;;;;;;;;4.25;4.25;;;;;11.86;79.94;101261.13;5041664;28;45299;-78
2023/01/06 07:49:26;;;;;;;;;3.00;3.00;;;;;11.85;80.13;101264.69;5041198;28;45646;-72
2023/01/06 07:51:52;;;;;;;;;4.75;4.75;;;;;11.91;80.63;101266.25;5041246;28;45265;-74
2023/01/06 07:54:17;;;;;;;;;4.75;4.75;;;;;11.91;79.99;101267.09;5039248;28;45290;-78
2023/01/06 07:56:43;;;;;;;;;4.50;4.50;;;;;11.93;80.27;101269.69;5040881;28;45449;-76
2023/01/06 07:59:08;;;;;;;;;3.00;3.00;;;;;11.95;80.44;101273.16;5039094;28;45364;-75
2023/01/06 08:01:34;;;;;;;;;3.00;3.00;;;;;11.95;80.44;101270.50;5042145;28;45486;-81
2023/01/06 08:03:59;;;;;;;;;6.75;6.75;;;;;11.95;80.40;101274.00;5037493;28;45238;-73
2023/01/06 08:06:24;;;;;;;;;11.00;11.00;;;;;11.96;80.28;101270.44;5025324;28;45427;-71
2023/01/06 08:08:50;;;;;;;;;4.00;4.00;;;;;11.94;79.95;101264.34;5035748;28;45364;-72
2023/01/06 08:11:15;;;;;;;;;8.00;8.00;;;;;12.03;80.35;101271.13;5034588;28;45491;-71
2023/01/06 08:13:40;;;;;;;;;4.00;4.00;;;;;12.04;80.17;101267.56;5016317;28;45210;-72
2023/01/06 08:16:07;;;;;;;;;5.00;5.00;;;;;12.02;80.13;101258.00;5015747;28;45454;-71
2023/01/06 08:18:33;;;;;;;;;5.25;5.25;;;;;12.07;79.96;101267.47;5017359;28;45655;-74
2023/01/06 08:21:00;;;;;;;;;5.00;5.00;;;;;12.09;79.90;101270.91;5037491;28;46299;-72
2023/01/06 08:23:26;;;;;;;;;3.00;3.00;;;;;12.05;79.71;101271.94;5035514;28;45558;-71
2023/01/06 08:25:51;;;;;;;;;3.00;3.00;;;;;12.08;79.96;101279.75;5036370;28;45433;-70
2023/01/06 08:28:16;;;;;;;;;4.00;4.00;;;;;12.06;79.94;101271.03;5036700;28;53393;-70
2023/01/06 08:30:42;;;;;;;;;4.75;4.75;;;;;12.09;79.63;101278.81;5034496;28;46432;-71
2023/01/06 08:33:07;;;;;;;;;3.25;3.25;;;;;12.11;79.77;101287.53;5034986;28;45535;-69
2023/01/06 08:35:33;;;;;;;;;10.25;10.25;;;;;12.10;79.83;101280.53;5036656;28;45297;-70
2023/01/06 08:37:58;;;;;;;;;6.00;6.00;;;;;12.12;79.60;101284.00;5036834;28;45332;-70
2023/01/06 08:40:23;;;;;;;;;5.75;5.75;;;;;12.08;79.52;101282.38;5035971;28;59441;-71
2023/01/06 08:42:48;;;;;;;;;6.50;6.50;;;;;12.11;79.96;101286.66;5035961;28;45499;-70
2023/01/06 08:45:14;;;;;;;;;8.75;8.75;;;;;12.10;79.71;101285.81;5036714;28;45609;-70
2023/01/06 08:47:39;;;;;;;;;5.50;5.50;;;;;12.08;79.86;101282.38;5052508;28;45565;-71
2023/01/06 08:50:05;;;;;;;;;6.00;6.00;;;;;12.13;79.72;101282.19;5034709;28;46292;-70
2023/01/06 08:52:31;;;;;;;;;5.00;5.00;;;;;12.14;79.94;101286.56;5035203;28;45332;-68
2023/01/06 08:54:58;;;;;;;;;4.25;4.25;;;;;12.13;79.78;101282.19;5036927;28;45344;-71
2023/01/06 08:57:24;;;;;;;;;5.00;5.00;;;;;12.07;79.69;101272.75;5035603;28;45435;-69
2023/01/06 08:59:49;;;;;;;;;5.75;5.75;;;;;12.13;79.94;101288.34;5017720;28;47004;-71
2023/01/06 09:02:14;;;;;;;;;3.50;3.50;;;;;12.13;79.77;101285.72;5037135;28;45578;-69
2023/01/06 09:04:40;;;;;;;;;5.25;5.25;;;;;12.16;79.86;101291.78;5037815;28;46199;-69
2023/01/06 09:07:05;;;;;;;;;7.50;6.25;;;;;12.15;79.56;101288.28;5036823;28;45308;-68
2023/01/06 09:09:30;;;;;;;;;4.50;4.50;;;;;12.13;79.72;101279.56;5037296;28;47730;-69
2023/01/06 09:11:56;;;;;;;;;6.00;6.00;;;;;12.18;79.56;101288.16;5035983;28;52139;-71
2023/01/06 09:14:22;;;;;;;;;4.00;4.00;;;;;12.19;79.82;101289.03;5051604;28;45451;-69
2023/01/06 09:16:47;;;;;;;;;5.00;5.00;;;;;12.20;79.27;101288.13;5036610;28;45433;-70
2023/01/06 09:19:15;;;;;;;;;6.00;6.00;;;;;12.19;79.57;101289.03;5052132;28;47867;-70
2023/01/06 09:21:41;;;;;;;;;4.25;4.25;;;;;12.18;79.38;101279.41;5035955;28;45299;-70
2023/01/06 09:24:11;;;;;;;;;5.00;5.00;;;;;12.22;79.79;101288.94;5035796;28;45743;-69
2023/01/06 09:26:37;;;;;;;;;7.50;7.50;;;;;12.23;79.84;101294.16;5036009;28;45284;-69
2023/01/06 09:29:02;;;;;;;;;5.00;5.00;;;;;12.22;79.84;101289.81;5035974;28;45642;-70
2023/01/06 09:31:27;;;;;;;;;4.00;4.00;;;;;12.20;79.94;101288.13;5036073;28;45400;-70
2023/01/06 09:33:53;;;;;;;;;5.00;5.00;;;;;12.18;79.94;101282.91;5052252;28;45400;-72
2023/01/06 09:36:18;;;;;;;;;9.00;9.00;;;;;12.18;80.40;101295.22;5035989;28;45458;-69
2023/01/06 09:38:44;;;;;;;;;7.75;7.75;;;;;12.19;79.97;101297.81;5035596;28;45174;-70
2023/01/06 09:41:24;;;;;;;;;7.00;7.00;;;;;12.23;80.06;101295.94;5050821;28;45261;-71
2023/01/06 09:43:54;;;;;;;;;5.00;5.00;;;;;12.22;80.23;101296.84;5051429;28;45407;-70
2023/01/06 09:46:29;;;;;;;;;4.50;4.50;;;;;12.24;79.98;101287.09;5036008;28;45293;-71
2023/01/06 09:49:11;;;;;;;;;4.00;4.00;;;;;12.32;79.87;101295.59;5035227;28;46344;-68
2023/01/06 09:51:37;;;;;;;;;4.50;4.50;;;;;12.34;79.75;101299.03;5035456;28;45386;-70
2023/01/06 09:54:26;;;;;;;;;4.00;4.00;;;;;12.38;79.57;101305.09;5035814;28;45328;-71
2023/01/06 09:56:59;;;;;;;;;6.75;6.75;;;;;12.37;79.63;101309.47;5035609;28;45179;-71
2023/01/06 09:59:50;;;;;;;;;10.50;10.50;;;;;12.45;79.77;101306.59;5035288;28;45234;-71
2023/01/06 10:02:25;;;;;;;;;4.25;4.25;;;;;12.42;79.43;101291.72;5035321;28;45442;-69
2023/01/06 10:04:50;;;;;;;;;5.50;5.50;;;;;12.49;79.23;101307.31;5051212;28;45463;-70
2023/01/06 10:07:48;;;;;;;;;6.00;6.00;;;;;12.52;79.24;101315.13;5035856;28;45496;-70
2023/01/06 10:10:22;;;;;;;;;5.75;5.00;;;;;12.51;78.97;101306.34;5035015;28;46328;-70
2023/01/06 10:13:26;;;;;;;;;7.25;7.25;;;;;12.48;79.03;101295.03;5035004;28;45356;-71
2023/01/06 10:15:59;;;;;;;;;5.00;5.00;;;;;12.50;78.63;101293.19;5031608;28;45383;-70
2023/01/06 10:18:35;;;;;;;;;4.00;4.00;;;;;12.51;78.80;101302.84;5034991;28;45309;-70
2023/01/06 10:21:28;;;;;;;;;5.00;5.00;;;;;12.49;78.24;101305.56;5035274;28;45428;-71
2023/01/06 10:24:03;;;;;;;;;4.00;4.00;;;;;12.48;78.80;101300.31;5034766;28;45250;-71
2023/01/06 10:26:43;;;;;;;;;8.00;8.00;;;;;12.46;78.81;101318.84;5034861;28;45445;-70
2023/01/06 10:29:17;;;;;;;;;4.00;4.00;;;;;12.48;78.80;101316.16;5035399;28;45335;-70
2023/01/06 10:31:44;;;;;;;;;7.25;7.25;;;;;12.43;78.80;101305.78;5035393;28;46401;-71
2023/01/06 10:34:23;;;;;;;;;6.50;6.50;;;;;12.47;79.15;101324.97;5036372;28;45431;-72
2023/01/06 10:37:15;;;;;;;;;5.00;5.00;;;;;12.45;79.18;101318.91;5016920;28;45591;-68
2023/01/06 10:39:44;;;;;;;;;6.50;6.50;;;;;12.43;79.21;101305.78;5035450;28;45272;-69
2023/01/06 10:44:53;;;;;;;;;6.00;6.00;;;;;12.45;79.43;101306.59;5034420;28;45421;-71
2023/01/06 10:47:29;;;;;;;;;6.25;6.25;;;;;12.48;79.07;101316.16;5034513;28;45413;-71
2023/01/06 10:49:54;;;;;;;;;7.75;7.75;;;;;12.50;79.28;101307.28;5034654;28;45463;-71
2023/01/06 10:52:21;;;;;;;;;9.00;9.00;;;;;12.52;79.30;101304.56;5034237;28;45420;-72
2023/01/06 10:54:50;;;;;;;;;7.00;7.00;;;;;12.61;79.10;101309.50;5016637;28;45540;-70
2023/01/06 10:57:30;;;;;;;;;10.75;10.75;;;;;12.64;79.00;101303.25;5034138;28;45256;-71
2023/01/06 11:00:17;;;;;;;;;9.25;8.25;;;;;12.65;78.93;101300.53;5034660;28;45582;-71
2023/01/06 11:02:49;;;;;;;;;6.75;6.75;;;;;12.66;78.76;101291.72;5016791;28;45379;-71
2023/01/06 11:05:22;;;;;;;;;8.00;8.00;;;;;12.69;78.48;101296.88;5035618;28;45287;-70
2023/01/06 11:07:55;;;;;;;;;5.25;5.25;;;;;12.72;78.54;101288.00;5035492;28;45366;-72
2023/01/06 11:10:30;;;;;;;;;6.00;6.00;;;;;12.75;78.34;101284.41;5016378;28;45224;-70
2023/01/06 11:12:59;;;;;;;;;7.25;7.25;;;;;12.77;78.10;101291.31;5034316;28;45733;-71
2023/01/06 11:15:33;;;;;;;;;7.75;7.75;;;;;12.78;78.34;101281.63;5015967;28;45436;-71
2023/01/06 11:17:59;;;;;;;;;7.75;7.75;;;;;12.80;78.02;101274.50;5034167;28;45375;-70
2023/01/06 11:20:24;;;;;;;;;9.00;9.00;;;;;12.78;78.22;101285.13;5034940;28;45326;-71
2023/01/06 11:22:50;;;;;;;;;8.25;8.25;;;;;12.82;78.02;101277.94;5034082;28;45939;-70
2023/01/06 11:25:28;;;;;;;;;7.00;7.00;;;;;12.80;77.99;101269.22;5016092;28;45364;-69
2023/01/06 11:28:17;;;;;;;;;10.00;10.00;;;;;12.82;78.18;101267.41;5034388;28;45877;-71
2023/01/06 11:30:54;;;;;;;;;8.75;8.75;;;;;12.84;78.23;101271.69;5034378;28;45433;-70
2023/01/06 11:33:25;;;;;;;;;8.25;8.25;;;;;12.88;78.03;101269.78;5034078;28;46396;-70
2023/01/06 11:35:51;;;;;;;;;10.50;10.50;;;;;12.93;77.70;101264.31;5049598;28;45619;-71
2023/01/06 11:38:19;;;;;;;;;8.00;8.00;;;;;12.96;77.99;101275.63;5034513;28;45310;-72